createdAt,value
2019-03-21T00:00:31.339Z,53.57
2019-03-21T00:03:22.031Z,53.51
2019-03-21T00:06:14.394Z,53.38
2019-03-21T00:09:08.555Z,53.11
2019-03-21T00:12:11.436Z,53.05
2019-03-21T00:15:21.879Z,53.01
2019-03-21T00:18:14.916Z,52.78
2019-03-21T00:21:06.039Z,52.82
2019-03-21T00:23:57.140Z,52.82
2019-03-21T00:26:48.059Z,52.84
2019-03-21T00:29:39.093Z,52.80
2019-03-21T00:32:29.735Z,52.83
2019-03-21T00:35:20.749Z,52.75
2019-03-21T00:38:12.187Z,52.74
2019-03-21T00:41:01.940Z,52.72
2019-03-21T00:43:52.756Z,52.69
2019-03-21T00:46:43.607Z,52.66
2019-03-21T00:49:34.493Z,52.66
2019-03-21T00:52:25.220Z,52.57
2019-03-21T00:55:15.795Z,52.58
2019-03-21T00:58:06.188Z,52.57
2019-03-21T01:00:57.545Z,52.52
2019-03-21T01:03:48.850Z,52.59
2019-03-21T01:06:38.827Z,52.49
2019-03-21T01:09:29.280Z,52.46
2019-03-21T01:12:19.811Z,52.34
2019-03-21T01:15:12.551Z,52.37
2019-03-21T01:18:03.152Z,52.47
2019-03-21T01:20:54.009Z,52.56
2019-03-21T01:23:44.910Z,52.58
2019-03-21T01:26:35.292Z,52.55
2019-03-21T01:29:25.799Z,52.47
2019-03-21T01:32:16.444Z,52.50
2019-03-21T01:35:07.675Z,52.48
2019-03-21T01:37:58.580Z,52.56
2019-03-21T01:40:50.515Z,52.56
2019-03-21T01:43:41.359Z,52.60
2019-03-21T01:46:31.789Z,52.62
2019-03-21T01:49:22.691Z,52.64
2019-03-21T01:52:13.892Z,52.62
2019-03-21T01:55:05.567Z,52.64
2019-03-21T01:57:56.553Z,52.69
2019-03-21T02:00:47.162Z,52.73
2019-03-21T02:03:38.696Z,52.74
2019-03-21T02:06:30.076Z,52.80
2019-03-21T02:09:20.577Z,52.80
2019-03-21T02:12:11.275Z,52.87
2019-03-21T02:15:02.182Z,52.87
2019-03-21T02:17:52.972Z,52.85
2019-03-21T02:20:43.838Z,52.89
2019-03-21T02:23:34.739Z,52.88
2019-03-21T02:26:26.329Z,52.88
2019-03-21T02:29:16.703Z,52.84
2019-03-21T02:32:07.568Z,52.83
2019-03-21T02:34:58.912Z,52.73
2019-03-21T02:37:49.958Z,52.79
2019-03-21T02:40:40.990Z,52.85
2019-03-21T02:43:31.891Z,52.85
2019-03-21T02:46:22.670Z,52.76
2019-03-21T02:49:13.037Z,52.81
2019-03-21T02:52:03.664Z,52.90
2019-03-21T02:54:54.201Z,52.86
2019-03-21T02:57:44.925Z,52.98
2019-03-21T03:00:35.759Z,53.07
2019-03-21T03:03:27.111Z,53.10
2019-03-21T03:06:17.985Z,53.20
2019-03-21T03:09:10.148Z,53.31
2019-03-21T03:12:00.966Z,53.34
2019-03-21T03:14:51.870Z,53.49
2019-03-21T03:17:42.922Z,53.58
2019-03-21T03:20:33.593Z,53.66
2019-03-21T03:23:24.811Z,53.68
2019-03-21T03:26:15.796Z,53.78
2019-03-21T03:29:06.968Z,53.81
2019-03-21T03:31:57.635Z,53.91
2019-03-21T03:34:48.467Z,53.98
2019-03-21T03:37:38.707Z,54.02
2019-03-21T03:40:34.307Z,54.03
2019-03-21T03:43:25.390Z,54.13
2019-03-21T03:46:16.834Z,54.21
2019-03-21T03:49:07.828Z,54.28
2019-03-21T03:51:58.577Z,54.38
2019-03-21T03:54:49.785Z,54.48
2019-03-21T03:57:40.561Z,54.77
2019-03-21T04:00:31.573Z,54.88
2019-03-21T04:03:22.409Z,54.80
2019-03-21T04:06:13.111Z,54.93
2019-03-21T04:09:05.346Z,54.88
2019-03-21T04:11:57.528Z,55.10
2019-03-21T04:14:48.159Z,55.06
2019-03-21T04:17:39.160Z,55.18
2019-03-21T04:20:32.051Z,55.38
2019-03-21T04:23:22.874Z,55.31
2019-03-21T04:26:19.210Z,55.39
2019-03-21T04:29:09.760Z,55.42
2019-03-21T04:32:00.087Z,55.40
2019-03-21T04:34:50.779Z,55.53
2019-03-21T04:37:44.974Z,55.60
2019-03-21T04:40:35.486Z,55.81
2019-03-21T04:43:26.246Z,55.82
2019-03-21T04:46:15.994Z,55.86
2019-03-21T04:49:06.609Z,55.79
2019-03-21T04:51:56.874Z,55.90
2019-03-21T04:54:47.689Z,56.03
2019-03-21T04:57:38.510Z,55.94
2019-03-21T05:00:31.560Z,55.91
2019-03-21T05:03:22.600Z,56.09
2019-03-21T05:06:13.502Z,56.08
2019-03-21T05:09:05.908Z,56.04
2019-03-21T05:11:56.730Z,56.30
2019-03-21T05:14:47.028Z,56.13
2019-03-21T05:17:37.971Z,56.13
2019-03-21T05:20:29.475Z,56.13
2019-03-21T05:23:20.053Z,56.20
2019-03-21T05:26:11.403Z,56.19
2019-03-21T05:29:01.755Z,56.18
2019-03-21T05:31:52.384Z,56.17
2019-03-21T05:34:43.004Z,56.18
2019-03-21T05:37:33.755Z,56.20
2019-03-21T05:40:24.124Z,56.29
2019-03-21T05:43:19.682Z,56.36
2019-03-21T05:46:10.293Z,56.37
2019-03-21T05:49:01.136Z,56.45
2019-03-21T05:51:51.973Z,56.37
2019-03-21T05:54:41.804Z,56.31
2019-03-21T05:57:32.441Z,56.29
2019-03-21T06:00:28.654Z,56.23
2019-03-21T06:03:23.586Z,56.09
2019-03-21T06:06:18.789Z,56.09
2019-03-21T06:09:11.392Z,55.89
2019-03-21T06:12:02.185Z,55.56
2019-03-21T06:14:57.854Z,55.25
2019-03-21T06:18:02.633Z,55.09
2019-03-21T06:21:44.990Z,54.96
2019-03-21T06:25:02.938Z,54.79
2019-03-21T06:27:53.526Z,54.60
2019-03-21T06:30:44.437Z,53.63
2019-03-21T06:33:35.048Z,53.67
2019-03-21T06:36:25.392Z,53.40
2019-03-21T06:39:16.476Z,52.62
2019-03-21T06:42:06.864Z,51.29
2019-03-21T06:44:57.499Z,50.68
2019-03-21T06:47:48.189Z,50.11
2019-03-21T06:50:38.781Z,47.70
2019-03-21T06:53:29.706Z,47.21
2019-03-21T06:56:21.079Z,46.70
2019-03-21T06:59:11.755Z,45.56
2019-03-21T07:02:01.950Z,44.87
2019-03-21T07:04:52.838Z,44.33
2019-03-21T07:07:43.534Z,43.26
2019-03-21T07:10:34.593Z,43.41
2019-03-21T07:13:25.135Z,43.24
2019-03-21T07:16:16.994Z,42.42
2019-03-21T07:19:07.337Z,41.54
2019-03-21T07:21:57.629Z,40.04
2019-03-21T07:24:49.565Z,38.58
2019-03-21T07:27:40.078Z,37.43
2019-03-21T07:30:30.942Z,36.64
2019-03-21T07:33:21.253Z,36.62
2019-03-21T07:36:11.935Z,35.26
2019-03-21T07:39:02.598Z,35.07
2019-03-21T07:41:53.383Z,35.49
2019-03-21T07:44:44.647Z,34.43
2019-03-21T07:47:35.143Z,34.42
2019-03-21T07:50:25.778Z,35.07
2019-03-21T07:53:16.505Z,34.39
2019-03-21T07:56:07.793Z,34.65
2019-03-21T07:58:58.325Z,34.26
2019-03-21T08:01:49.332Z,34.86
2019-03-21T08:04:39.847Z,35.31
2019-03-21T08:07:30.430Z,35.99
2019-03-21T08:10:21.463Z,36.53
2019-03-21T08:13:12.297Z,36.87
2019-03-21T08:16:03.190Z,37.37
2019-03-21T08:18:54.933Z,37.10
2019-03-21T08:21:45.272Z,37.71
2019-03-21T08:24:36.082Z,38.22
2019-03-21T08:27:26.964Z,38.00
2019-03-21T08:30:33.734Z,36.72
2019-03-21T08:33:24.585Z,36.44
2019-03-21T08:36:15.366Z,36.91
2019-03-21T08:39:09.224Z,36.98
2019-03-21T08:42:00.070Z,36.88
2019-03-21T08:44:50.902Z,37.02
2019-03-21T08:47:41.534Z,37.50
2019-03-21T08:50:32.975Z,38.31
2019-03-21T08:53:23.961Z,37.77
2019-03-21T08:56:14.586Z,37.43
2019-03-21T08:59:05.295Z,36.35
2019-03-21T09:01:55.803Z,35.56
2019-03-21T09:04:46.578Z,35.64
2019-03-21T09:07:37.137Z,36.16
2019-03-21T09:10:28.041Z,37.10
2019-03-21T09:13:19.042Z,37.23
2019-03-21T09:16:10.898Z,37.16
2019-03-21T09:19:01.506Z,37.03
2019-03-21T09:21:53.279Z,37.20
2019-03-21T09:24:43.944Z,37.51
2019-03-21T09:27:34.761Z,37.90
2019-03-21T09:30:24.908Z,37.82
2019-03-21T09:33:15.984Z,37.85
2019-03-21T09:36:06.834Z,36.70
2019-03-21T09:38:57.823Z,35.74
2019-03-21T09:41:48.715Z,35.00
2019-03-21T09:44:39.839Z,34.68
2019-03-21T09:47:30.278Z,33.83
2019-03-21T09:50:29.475Z,34.28
2019-03-21T09:53:19.878Z,34.83
2019-03-21T09:56:10.518Z,34.97
2019-03-21T09:59:01.008Z,34.98
2019-03-21T10:01:54.347Z,35.07
2019-03-21T10:04:44.018Z,34.75
2019-03-21T10:07:34.816Z,35.41
2019-03-21T10:10:31.086Z,34.73
2019-03-21T10:13:21.597Z,34.49
2019-03-21T10:16:12.855Z,33.47
2019-03-21T10:19:03.716Z,33.10
2019-03-21T10:21:55.089Z,31.32
2019-03-21T10:24:45.968Z,32.44
2019-03-21T10:27:36.888Z,31.84
2019-03-21T10:30:36.969Z,31.80
2019-03-21T10:33:27.985Z,31.27
2019-03-21T10:36:18.873Z,30.99
2019-03-21T10:39:09.918Z,29.34
2019-03-21T10:42:00.880Z,28.53
2019-03-21T10:44:51.695Z,26.46
2019-03-21T10:47:42.294Z,26.06
2019-03-21T10:50:35.693Z,25.77
2019-03-21T10:53:26.556Z,24.98
2019-03-21T10:56:17.337Z,24.12
2019-03-21T10:59:07.716Z,25.14
2019-03-21T11:02:06.877Z,23.86
2019-03-21T11:04:51.057Z,24.52
2019-03-21T11:07:41.791Z,24.15
2019-03-21T11:10:32.821Z,23.74
2019-03-21T11:13:24.218Z,24.18
2019-03-21T11:16:14.983Z,23.82
2019-03-21T11:19:05.227Z,23.60
2019-03-21T11:22:05.693Z,24.64
2019-03-21T11:24:48.048Z,24.17
2019-03-21T11:27:39.020Z,23.14
2019-03-21T11:30:38.992Z,23.68
2019-03-21T11:33:29.607Z,23.70
2019-03-21T11:36:20.560Z,23.45
2019-03-21T11:39:11.302Z,22.21
2019-03-21T11:42:02.462Z,22.30
2019-03-21T11:44:53.432Z,22.41
2019-03-21T11:47:44.156Z,23.03
2019-03-21T11:50:36.351Z,21.51
2019-03-21T11:53:26.925Z,21.71
2019-03-21T11:56:17.795Z,22.00
2019-03-21T11:59:08.257Z,21.31
2019-03-21T12:01:58.869Z,22.51
2019-03-21T12:04:49.086Z,21.96
2019-03-21T12:07:39.529Z,22.56
2019-03-21T12:10:30.365Z,22.63
2019-03-21T12:13:21.008Z,23.16
2019-03-21T12:16:11.338Z,23.23
2019-03-21T12:19:02.337Z,22.67
2019-03-21T12:21:53.706Z,22.19
2019-03-21T12:24:44.571Z,22.96
2019-03-21T12:27:35.349Z,23.52
2019-03-21T12:30:38.572Z,22.80
2019-03-21T12:33:29.021Z,22.76
2019-03-21T12:36:19.746Z,23.68
2019-03-21T12:39:11.273Z,24.18
2019-03-21T12:42:01.970Z,24.51
2019-03-21T12:44:52.751Z,24.69
2019-03-21T12:47:43.317Z,24.18
2019-03-21T12:50:34.291Z,25.19
2019-03-21T12:53:25.156Z,24.80
2019-03-21T12:56:15.722Z,24.82
2019-03-21T12:59:06.730Z,25.10
2019-03-21T13:01:57.991Z,26.04
2019-03-21T13:04:49.421Z,25.86
2019-03-21T13:07:40.314Z,26.45
2019-03-21T13:10:31.061Z,26.73
2019-03-21T13:13:21.874Z,26.45
2019-03-21T13:16:13.163Z,26.61
2019-03-21T13:19:03.986Z,27.42
2019-03-21T13:21:54.772Z,27.67
2019-03-21T13:24:45.698Z,27.81
2019-03-21T13:27:36.209Z,27.66
2019-03-21T13:30:26.638Z,27.91
2019-03-21T13:33:18.027Z,28.12
2019-03-21T13:36:08.890Z,28.09
2019-03-21T13:39:00.622Z,27.78
2019-03-21T13:41:52.894Z,28.35
2019-03-21T13:44:43.686Z,28.25
2019-03-21T13:47:34.290Z,29.09
2019-03-21T13:50:25.076Z,29.72
2019-03-21T13:53:18.919Z,30.35
2019-03-21T13:56:08.727Z,30.24
2019-03-21T13:58:59.328Z,31.04
2019-03-21T14:01:50.074Z,31.83
2019-03-21T14:04:40.924Z,31.98
2019-03-21T14:07:31.900Z,31.83
2019-03-21T14:10:22.725Z,32.57
2019-03-21T14:13:13.331Z,32.88
2019-03-21T14:16:04.083Z,33.06
2019-03-21T14:18:54.654Z,33.71
2019-03-21T14:21:45.772Z,34.19
2019-03-21T14:24:36.820Z,34.14
2019-03-21T14:27:26.681Z,34.37
2019-03-21T14:30:17.871Z,34.72
2019-03-21T14:33:08.592Z,35.09
2019-03-21T14:35:59.501Z,35.29
2019-03-21T14:38:50.414Z,35.18
2019-03-21T14:41:41.331Z,35.19
2019-03-21T14:44:31.852Z,35.38
2019-03-21T14:47:22.541Z,35.22
2019-03-21T14:50:14.472Z,35.38
2019-03-21T14:53:05.244Z,35.98
2019-03-21T14:55:56.129Z,36.17
2019-03-21T14:58:47.858Z,36.14
2019-03-21T15:01:40.656Z,36.23
2019-03-21T15:04:31.191Z,36.13
2019-03-21T15:07:21.431Z,36.33
2019-03-21T15:10:14.083Z,36.25
2019-03-21T15:13:05.842Z,36.75
2019-03-21T15:15:56.829Z,36.44
2019-03-21T15:18:47.448Z,36.61
2019-03-21T15:21:38.838Z,36.60
2019-03-21T15:24:29.365Z,36.79
2019-03-21T15:27:20.846Z,36.79
2019-03-21T15:30:15.437Z,37.39
2019-03-21T15:33:05.941Z,37.43
2019-03-21T15:35:56.875Z,37.20
2019-03-21T15:38:47.818Z,36.92
2019-03-21T15:41:39.234Z,37.28
2019-03-21T15:44:30.171Z,37.31
2019-03-21T15:47:21.087Z,37.60
2019-03-21T15:50:33.684Z,37.59
2019-03-21T15:53:24.343Z,37.87
2019-03-21T15:56:14.949Z,38.19
2019-03-21T15:59:05.225Z,38.24
2019-03-21T16:01:56.238Z,38.42
2019-03-21T16:04:46.919Z,38.58
2019-03-21T16:07:37.953Z,38.70
2019-03-21T16:10:28.409Z,38.81
2019-03-21T16:13:19.721Z,38.88
2019-03-21T16:16:10.593Z,38.71
2019-03-21T16:19:01.264Z,39.10
2019-03-21T16:21:52.142Z,39.27
2019-03-21T16:24:43.319Z,39.30
2019-03-21T16:27:34.038Z,39.55
2019-03-21T16:30:25.050Z,39.71
2019-03-21T16:33:15.500Z,39.85
2019-03-21T16:36:06.097Z,39.91
2019-03-21T16:38:56.399Z,40.00
2019-03-21T16:41:47.231Z,40.13
2019-03-21T16:44:38.272Z,40.28
2019-03-21T16:47:29.534Z,40.26
2019-03-21T16:50:20.079Z,40.47
2019-03-21T16:53:10.615Z,40.56
2019-03-21T16:56:01.219Z,40.61
2019-03-21T16:58:52.149Z,40.75
2019-03-21T17:01:43.263Z,40.85
2019-03-21T17:04:34.338Z,40.96
2019-03-21T17:07:25.269Z,41.18
2019-03-21T17:10:16.325Z,41.31
2019-03-21T17:13:06.494Z,41.43
2019-03-21T17:15:56.881Z,41.73
2019-03-21T17:18:47.797Z,41.84
2019-03-21T17:21:38.505Z,42.06
2019-03-21T17:24:29.869Z,42.25
2019-03-21T17:27:20.397Z,42.35
2019-03-21T17:30:11.537Z,42.61
2019-03-21T17:33:02.651Z,42.78
2019-03-21T17:35:53.557Z,42.99
2019-03-21T17:38:43.504Z,43.10
2019-03-21T17:41:34.372Z,43.30
2019-03-21T17:44:25.593Z,43.50
2019-03-21T17:47:17.357Z,43.79
2019-03-21T17:50:10.284Z,44.03
2019-03-21T17:53:00.392Z,44.19
2019-03-21T17:55:51.085Z,44.32
2019-03-21T17:58:42.332Z,44.44
2019-03-21T18:01:33.084Z,44.68
2019-03-21T18:04:24.709Z,44.91
2019-03-21T18:07:15.444Z,45.15
2019-03-21T18:10:08.215Z,45.27
2019-03-21T18:12:59.464Z,45.53
2019-03-21T18:15:50.402Z,45.78
2019-03-21T18:18:40.352Z,45.77
2019-03-21T18:21:31.474Z,45.91
2019-03-21T18:24:23.122Z,46.17
2019-03-21T18:27:13.880Z,46.30
2019-03-21T18:30:05.522Z,46.48
2019-03-21T18:32:56.155Z,46.49
2019-03-21T18:35:46.227Z,46.60
2019-03-21T18:38:37.550Z,46.76
2019-03-21T18:41:27.923Z,46.87
2019-03-21T18:44:19.019Z,46.94
2019-03-21T18:47:10.216Z,47.14
2019-03-21T18:50:00.871Z,47.20
2019-03-21T18:52:52.597Z,47.37
2019-03-21T18:55:43.324Z,47.41
2019-03-21T18:58:34.429Z,47.59
2019-03-21T19:01:24.829Z,47.84
2019-03-21T19:04:16.850Z,47.92
2019-03-21T19:07:07.762Z,48.08
2019-03-21T19:09:58.118Z,48.39
2019-03-21T19:12:49.509Z,48.48
2019-03-21T19:15:40.250Z,48.60
2019-03-21T19:18:31.423Z,48.72
2019-03-21T19:21:21.151Z,48.92
2019-03-21T19:24:12.293Z,49.03
2019-03-21T19:27:02.578Z,49.08
2019-03-21T19:29:53.275Z,49.20
2019-03-21T19:32:44.315Z,49.31
2019-03-21T19:35:35.276Z,49.42
2019-03-21T19:38:27.147Z,49.63
2019-03-21T19:41:16.867Z,49.66
2019-03-21T19:44:08.763Z,49.83
2019-03-21T19:47:01.458Z,50.00
2019-03-21T19:49:52.259Z,50.16
2019-03-21T19:52:43.131Z,50.12
2019-03-21T19:55:33.474Z,50.35
2019-03-21T19:58:24.492Z,50.60
2019-03-21T20:01:15.895Z,50.76
2019-03-21T20:04:07.667Z,50.76
2019-03-21T20:06:58.598Z,50.73
2019-03-21T20:09:50.172Z,50.92
2019-03-21T20:12:41.241Z,51.04
2019-03-21T20:15:32.470Z,51.32
2019-03-21T20:18:23.642Z,51.59
2019-03-21T20:21:14.304Z,51.68
2019-03-21T20:24:05.569Z,51.77
2019-03-21T20:26:57.725Z,51.79
2019-03-21T20:29:48.823Z,51.82
2019-03-21T20:32:39.515Z,51.97
2019-03-21T20:35:30.288Z,52.22
2019-03-21T20:38:20.906Z,52.21
2019-03-21T20:41:11.726Z,52.38
2019-03-21T20:44:14.398Z,52.61
2019-03-21T20:46:55.154Z,52.80
2019-03-21T20:49:45.861Z,52.88
2019-03-21T20:52:36.721Z,52.82
2019-03-21T20:55:27.324Z,52.84
2019-03-21T20:58:18.400Z,52.88
2019-03-21T21:01:08.304Z,52.96
2019-03-21T21:03:58.806Z,53.22
2019-03-21T21:06:49.772Z,53.39
2019-03-21T21:09:41.132Z,53.39
2019-03-21T21:12:31.981Z,53.49
2019-03-21T21:15:22.823Z,53.58
2019-03-21T21:18:13.811Z,53.71
2019-03-21T21:21:04.464Z,53.67
2019-03-21T21:23:55.299Z,53.78
2019-03-21T21:26:45.990Z,53.92
2019-03-21T21:29:36.998Z,53.99
2019-03-21T21:32:27.940Z,54.00
2019-03-21T21:35:18.682Z,54.02
2019-03-21T21:38:09.478Z,54.08
2019-03-21T21:40:59.299Z,54.17
2019-03-21T21:43:50.443Z,54.24
2019-03-21T21:46:42.407Z,54.23
2019-03-21T21:49:33.356Z,54.43
2019-03-21T21:52:24.395Z,54.42
2019-03-21T21:55:15.205Z,54.50
2019-03-21T21:58:06.167Z,54.67
2019-03-21T22:00:56.942Z,54.76
2019-03-21T22:03:47.654Z,54.71
2019-03-21T22:06:38.219Z,54.70
2019-03-21T22:09:29.517Z,54.80
2019-03-21T22:12:20.330Z,54.81
2019-03-21T22:15:12.444Z,54.82
2019-03-21T22:18:02.868Z,55.18
2019-03-21T22:20:53.577Z,55.37
2019-03-21T22:23:44.603Z,55.29
2019-03-21T22:26:35.206Z,55.36
2019-03-21T22:29:25.988Z,55.48
2019-03-21T22:32:17.315Z,55.57
2019-03-21T22:35:08.726Z,55.69
2019-03-21T22:37:58.703Z,55.69
2019-03-21T22:40:49.515Z,55.79
2019-03-21T22:43:40.870Z,55.70
2019-03-21T22:46:31.180Z,55.73
2019-03-21T22:49:22.055Z,55.78
2019-03-21T22:52:12.986Z,55.80
2019-03-21T22:55:03.715Z,56.14
2019-03-21T22:57:54.500Z,56.14
2019-03-21T23:00:47.532Z,56.03
2019-03-21T23:03:38.751Z,56.10
2019-03-21T23:06:30.737Z,56.24
2019-03-21T23:09:21.981Z,56.44
2019-03-21T23:12:12.570Z,56.39
2019-03-21T23:15:04.205Z,56.34
2019-03-21T23:17:55.327Z,56.40
2019-03-21T23:20:46.347Z,56.36
2019-03-21T23:23:37.321Z,56.45
2019-03-21T23:26:28.192Z,56.49
2019-03-21T23:29:19.078Z,56.65
2019-03-21T23:32:10.319Z,56.77
2019-03-21T23:35:01.372Z,56.76
2019-03-21T23:37:52.900Z,56.79
2019-03-21T23:40:44.178Z,56.95
2019-03-21T23:43:34.827Z,56.91
2019-03-21T23:46:25.823Z,56.93
2019-03-21T23:49:16.399Z,56.94
2019-03-21T23:52:06.456Z,57.03
2019-03-21T23:54:57.712Z,57.19
2019-03-21T23:57:49.237Z,57.20
